Chula Vista, California
Current Conditions -  °F | °C
As of 5:56 AM on Wednesday 28 Jan 2015 (Local Time) from KNRS Reporting Station
Clear Clear  
Wind Chill: 52°   Ceiling: Unl
Heat Index: 52°   Visibility: NA
Dew Point: 46°   Wind: 6mph
Humidity: 80%   Direction: 20°NNE
Pressure: 30.13"   Gusts: NA
Location:  32.64°N, 117.08°W
Report Text: KNRS 281356Z AUTO 02005KT CLR 11/08 A3013 RMK AO2 SLP201 T01110078 $
Loading
Personal Weather Stations






























Interactive Weather Map New forecast layout! Learn more

10-Day Weather Forecast

Advertisements
Track Severe Weather on mobile